Time;durP1;ratioP1;P1;durP2;ratioP2;P2;SDS_P1;SDS_P2;PMS_P1;PMS_P2;Temp;Humidity;BMP_temperature;BMP_pressure;BME280_temperature;BME280_humidity;BME280_pressure;Samples;Min_cycle;Max_cycle;Signal;HPM_P1;HPM_P2
2021/12/03 00:01:32;;;;;;;16.10;9.40;;;;;;;0.83;61.96;99190.05;108822;1278;23046;-72
2021/12/03 00:04:02;;;;;;;17.20;10.60;;;;;;;0.79;61.96;99191.80;108892;1274;23039;-73
2021/12/03 00:06:35;;;;;;;14.70;9.40;;;;;;;0.76;62.10;99197.77;109144;1275;23594;-73
2021/12/03 00:09:07;;;;;;;16.40;9.20;;;;;;;0.74;62.22;99197.28;109121;1274;22633;-73
2021/12/03 00:11:36;;;;;;;;;;;;;;;0.74;62.39;99200.90;109025;1275;23576;-74
2021/12/03 00:14:06;;;;;;;13.00;7.50;;;;;;;0.68;62.54;99204.15;109027;1275;22097;-74
2021/12/03 00:16:35;;;;;;;13.80;8.30;;;;;;;0.71;62.64;99206.21;109024;1274;21966;-74
2021/12/03 00:19:04;;;;;;;13.60;7.30;;;;;;;0.75;62.82;99209.66;108434;1281;22230;-74
2021/12/03 00:21:34;;;;;;;14.60;7.40;;;;;;;0.78;62.93;99209.02;108659;1280;22071;-73
2021/12/03 00:24:03;;;;;;;11.30;6.70;;;;;;;0.81;63.08;99208.48;108274;1287;22142;-73
2021/12/03 00:26:33;;;;;;;13.80;6.30;;;;;;;0.85;63.17;99212.91;108099;1286;21992;-73
2021/12/03 00:29:02;;;;;;;11.70;5.50;;;;;;;0.91;63.35;99220.20;108055;1287;21999;-73
2021/12/03 00:31:31;;;;;;;9.40;5.00;;;;;;;0.96;63.43;99218.80;108084;1286;22775;-73
2021/12/03 00:34:01;;;;;;;11.60;5.40;;;;;;;0.98;63.40;99222.23;108092;1287;22853;-73
2021/12/03 00:36:30;;;;;;;8.60;5.00;;;;;;;0.99;63.45;99223.34;108014;1288;22041;-74
2021/12/03 00:39:00;;;;;;;8.20;5.80;;;;;;;0.98;63.53;99225.84;108213;1287;23667;-73
2021/12/03 00:41:35;;;;;;;11.00;5.70;;;;;;;0.97;63.61;99230.45;108166;1281;21983;-73
2021/12/03 00:44:04;;;;;;;11.00;5.20;;;;;;;0.92;63.61;99232.64;108695;1275;22930;-74
2021/12/03 00:46:34;;;;;;;8.40;5.70;;;;;;;0.87;63.70;99236.64;109104;1275;23669;-73
2021/12/03 00:49:03;;;;;;;9.70;6.00;;;;;;;0.86;63.89;99241.60;108923;1275;21976;-73
2021/12/03 00:51:33;;;;;;;7.60;4.90;;;;;;;0.86;63.98;99247.17;108880;1276;21998;-74
2021/12/03 00:54:02;;;;;;;9.40;5.70;;;;;;;0.86;64.06;99253.79;109130;1275;24290;-74
2021/12/03 00:56:32;;;;;;;10.90;5.50;;;;;;;0.85;64.17;99260.76;108864;1275;22041;-73
2021/12/03 00:59:01;;;;;;;8.80;5.10;;;;;;;0.87;64.33;99261.29;108861;1277;21993;-74
2021/12/03 01:01:30;;;;;;;8.10;5.40;;;;;;;0.89;64.46;99267.39;108850;1275;23578;-73
2021/12/03 01:04:01;;;;;;;10.60;5.60;;;;;;;0.91;64.53;99269.77;108899;1275;22929;-73
2021/12/03 01:06:30;;;;;;;9.80;5.40;;;;;;;0.94;64.63;99279.29;108748;1278;23772;-73
2021/12/03 01:09:01;;;;;;;9.40;5.40;;;;;;;0.93;64.71;99283.80;108826;1275;21973;-73
2021/12/03 01:11:31;;;;;;;10.50;5.50;;;;;;;0.96;64.87;99286.73;108681;1281;22849;-72
2021/12/03 01:14:02;;;;;;;9.20;5.80;;;;;;;0.99;65.02;99286.98;108595;1281;22072;-73
2021/12/03 01:16:33;;;;;;;8.10;5.20;;;;;;;1.01;65.06;99294.98;108723;1281;21994;-73
2021/12/03 01:19:03;;;;;;;7.40;4.60;;;;;;;1.02;65.10;99296.77;108455;1280;203496;-72
2021/12/03 01:21:32;;;;;;;9.70;5.30;;;;;;;1.04;65.23;99296.42;108548;1281;22033;-73
2021/12/03 01:24:02;;;;;;;10.30;6.20;;;;;;;1.07;65.33;99301.52;108372;1284;22742;-72
2021/12/03 01:26:33;;;;;;;9.50;6.00;;;;;;;1.10;65.29;99302.52;108390;1285;24320;-73
2021/12/03 01:29:03;;;;;;;7.90;5.90;;;;;;;1.10;65.28;99298.83;108052;1283;22027;-73
2021/12/03 01:31:33;;;;;;;8.30;6.00;;;;;;;1.09;65.26;99301.50;108424;1282;22099;-73
2021/12/03 01:34:03;;;;;;;8.70;6.20;;;;;;;1.09;65.46;99309.30;108507;1284;22093;-73
2021/12/03 01:36:33;;;;;;;7.80;5.60;;;;;;;1.09;65.46;99315.55;108428;1282;24306;-72
2021/12/03 01:39:03;;;;;;;10.10;6.00;;;;;;;1.08;65.51;99309.98;108413;1282;21989;-73
2021/12/03 01:41:33;;;;;;;10.70;6.00;;;;;;;1.07;65.62;99313.73;108507;1275;23074;-73
2021/12/03 01:44:03;;;;;;;9.60;5.60;;;;;;;1.06;65.67;99318.64;108813;1275;23843;-73
2021/12/03 01:46:33;;;;;;;7.40;4.90;;;;;;;1.08;65.77;99318.11;108897;1275;21992;-72
2021/12/03 01:49:04;;;;;;;7.40;4.90;;;;;;;1.09;65.67;99326.54;109134;1275;22006;-73
2021/12/03 01:51:34;;;;;;;7.70;4.70;;;;;;;1.10;65.76;99330.39;109123;1275;23026;-73
2021/12/03 01:54:03;;;;;;;9.60;4.90;;;;;;;1.12;65.85;99336.17;108629;1280;21988;-73
2021/12/03 01:56:33;;;;;;;9.50;5.20;;;;;;;1.14;65.88;99337.65;108567;1281;22012;-74
2021/12/03 01:59:03;;;;;;;12.90;6.00;;;;;;;1.15;65.82;99345.79;108600;1281;21976;-73
2021/12/03 02:01:33;;;;;;;10.50;5.50;;;;;;;1.14;65.94;99349.46;108486;1281;22993;-74
2021/12/03 02:04:04;;;;;;;8.80;5.10;;;;;;;1.13;65.90;99349.44;108609;1280;22018;-73
2021/12/03 02:06:34;;;;;;;9.90;6.20;;;;;;;1.13;65.95;99348.55;108672;1281;21985;-74
2021/12/03 02:09:06;;;;;;;9.70;5.50;;;;;;;1.14;66.05;99354.31;108667;1281;21982;-74
2021/12/03 02:11:35;;;;;;;;;;;;;;;1.14;66.03;99356.73;108507;1278;23688;-73
2021/12/03 02:14:06;;;;;;;10.50;5.50;;;;;;;1.06;66.12;99363.23;108740;1278;22051;-74
2021/12/03 02:16:36;;;;;;;10.10;5.90;;;;;;;1.03;66.18;99363.11;108744;1279;22198;-73
2021/12/03 02:19:06;;;;;;;9.50;6.70;;;;;;;1.00;66.20;99368.85;108504;1278;22036;-74
2021/12/03 02:21:35;;;;;;;9.60;6.90;;;;;;;1.00;66.23;99365.81;108464;1281;21994;-73
2021/12/03 02:24:05;;;;;;;9.30;7.00;;;;;;;1.00;66.35;99367.36;108716;1279;23655;-74
2021/12/03 02:26:34;;;;;;;10.10;6.20;;;;;;;1.02;66.29;99372.21;108735;1279;21994;-73
2021/12/03 02:29:04;;;;;;;12.30;7.60;;;;;;;1.01;66.29;99379.36;108351;1285;23789;-73
2021/12/03 02:31:33;;;;;;;10.20;6.90;;;;;;;1.02;66.35;99383.11;108088;1285;23069;-73
2021/12/03 02:34:03;;;;;;;8.80;6.30;;;;;;;1.04;66.37;99390.60;107961;1290;24422;-73
2021/12/03 02:36:32;;;;;;;8.60;6.40;;;;;;;1.06;66.51;99391.09;107863;1290;22857;-74
2021/12/03 02:39:02;;;;;;;8.50;5.50;;;;;;;1.08;66.37;99396.61;107878;1290;23618;-73
2021/12/03 02:41:31;;;;;;;12.20;6.50;;;;;;;1.07;66.28;99399.80;107772;1290;22177;-74
2021/12/03 02:44:02;;;;;;;8.90;6.00;;;;;;;1.09;66.40;99402.11;107770;1292;23691;-73
2021/12/03 02:46:31;;;;;;;11.40;6.20;;;;;;;1.10;66.45;99402.87;108059;1290;22116;-73
2021/12/03 02:49:00;;;;;;;13.30;7.60;;;;;;;1.10;66.35;99402.88;108047;1290;23793;-73
2021/12/03 02:51:29;;;;;;;11.00;7.20;;;;;;;1.09;66.37;99404.50;107462;1292;23707;-74
2021/12/03 02:54:00;;;;;;;10.70;7.80;;;;;;;1.10;66.56;99404.61;107791;1288;21980;-74
2021/12/03 02:56:30;;;;;;;9.00;6.80;;;;;;;1.10;66.53;99402.89;108154;1287;23068;-74
2021/12/03 02:58:59;;;;;;;8.60;5.70;;;;;;;1.10;66.68;99400.59;108209;1287;23637;-74
2021/12/03 03:01:28;;;;;;;11.10;6.20;;;;;;;1.10;66.51;99402.37;108289;1283;22091;-73
2021/12/03 03:03:58;;;;;;;7.40;5.60;;;;;;;1.05;66.50;99404.19;108667;1281;22330;-73
2021/12/03 03:06:28;;;;;;;9.80;5.10;;;;;;;1.03;66.57;99409.39;108383;1284;23292;-73
2021/12/03 03:08:57;;;;;;;8.70;5.50;;;;;;;1.00;66.60;99408.27;108479;1275;22018;-73
2021/12/03 03:11:29;;;;;;;9.40;5.80;;;;;;;0.99;66.75;99414.09;108909;1275;22028;-73
2021/12/03 03:13:58;;;;;;;8.50;5.90;;;;;;;1.00;66.85;99418.86;108847;1275;21980;-73
2021/12/03 03:16:27;;;;;;;10.10;6.20;;;;;;;0.99;66.88;99424.80;109000;1275;22003;-71
2021/12/03 03:18:57;;;;;;;9.90;6.40;;;;;;;0.98;66.90;99428.18;108990;1275;23579;-73
2021/12/03 03:21:28;;;;;;;11.80;7.70;;;;;;;1.00;67.06;99429.80;108713;1280;21969;-74
2021/12/03 03:23:57;;;;;;;10.60;7.20;;;;;;;1.03;67.13;99427.11;108788;1281;22547;-71
2021/12/03 03:26:28;;;;;;;9.00;6.10;;;;;;;1.04;67.08;99432.60;108483;1281;23823;-72
2021/12/03 03:28:58;;;;;;;10.70;6.30;;;;;;;1.03;67.10;99437.47;108670;1281;23577;-72
2021/12/03 03:31:27;;;;;;;7.10;4.10;;;;;;;1.03;67.13;99438.17;108795;1280;22202;-72
2021/12/03 03:33:56;;;;;;;7.80;3.70;;;;;;;1.00;67.04;99435.98;108574;1281;21943;-73
2021/12/03 03:36:26;;;;;;;9.00;4.30;;;;;;;0.96;67.07;99433.87;108630;1281;22493;-73
2021/12/03 03:38:55;;;;;;;6.50;4.50;;;;;;;0.90;66.86;99439.04;108784;1275;23585;-72
2021/12/03 03:41:25;;;;;;;8.10;4.90;;;;;;;0.85;66.96;99443.12;108466;1281;22008;-73
2021/12/03 03:43:54;;;;;;;5.50;4.70;;;;;;;0.82;66.99;99446.55;108559;1278;23033;-73
2021/12/03 03:46:24;;;;;;;8.00;5.10;;;;;;;0.80;67.08;99451.02;108682;1281;23680;-73
2021/12/03 03:48:54;;;;;;;6.10;4.60;;;;;;;0.80;67.03;99449.14;108443;1281;21981;-73
2021/12/03 03:51:23;;;;;;;8.10;4.60;;;;;;;0.79;67.01;99451.59;108333;1287;23083;-73
2021/12/03 03:53:52;;;;;;;5.70;3.60;;;;;;;0.81;67.02;99456.96;108350;1285;22074;-73
2021/12/03 03:56:22;;;;;;;5.70;4.10;;;;;;;0.85;66.96;99455.79;107975;1291;22025;-73
2021/12/03 03:58:51;;;;;;;6.90;3.80;;;;;;;0.83;66.72;99456.48;107457;1291;22002;-73
2021/12/03 04:01:21;;;;;;;5.90;3.40;;;;;;;0.78;66.75;99458.48;107652;1295;22540;-73
2021/12/03 04:03:50;;;;;;;6.70;3.40;;;;;;;0.73;66.65;99458.30;107332;1295;22025;-73
2021/12/03 04:06:20;;;;;;;4.90;3.40;;;;;;;0.70;66.68;99461.40;107735;1291;23048;-73
2021/12/03 04:08:49;;;;;;;7.30;4.20;;;;;;;0.65;66.72;99458.85;108061;1285;22112;-73
2021/12/03 04:11:23;;;;;;;5.30;3.20;;;;;;;0.62;66.78;99463.23;108228;1285;21978;-73
2021/12/03 04:13:52;;;;;;;6.10;2.90;;;;;;;0.57;66.71;99462.60;108302;1282;23839;-73
2021/12/03 04:16:21;;;;;;;6.90;3.70;;;;;;;0.53;66.75;99464.34;108526;1278;22041;-73
2021/12/03 04:18:51;;;;;;;7.50;3.90;;;;;;;0.48;66.82;99463.50;108857;1275;22162;-73
2021/12/03 04:21:21;;;;;;;5.40;3.60;;;;;;;0.45;66.73;99457.32;109022;1275;24377;-73
2021/12/03 04:23:52;;;;;;;8.20;3.60;;;;;;;0.43;66.79;99461.29;108953;1275;22959;-73
2021/12/03 04:26:22;;;;;;;5.20;3.40;;;;;;;0.39;66.78;99460.73;109054;1275;23605;-73
2021/12/03 04:28:51;;;;;;;5.50;3.40;;;;;;;0.37;66.91;99465.12;108838;1275;21983;-73
2021/12/03 04:31:21;;;;;;;8.00;4.10;;;;;;;0.31;66.73;99468.38;108481;1282;23034;-73
2021/12/03 04:33:51;;;;;;;5.00;3.90;;;;;;;0.24;66.91;99463.21;108361;1282;23034;-73
2021/12/03 04:36:20;;;;;;;7.60;5.20;;;;;;;0.18;67.01;99470.98;108281;1283;23729;-73
2021/12/03 04:38:50;;;;;;;7.10;5.50;;;;;;;0.13;67.17;99472.57;108639;1282;21977;-73
2021/12/03 04:41:19;;;;;;;10.50;6.60;;;;;;;0.09;67.14;99475.34;108446;1282;22038;-72
2021/12/03 04:43:48;;;;;;;9.50;6.00;;;;;;;0.04;67.11;99473.11;108158;1287;23258;-72
2021/12/03 04:46:19;;;;;;;8.70;5.70;;;;;;;-0.00;67.21;99481.44;108339;1287;23583;-72
2021/12/03 04:48:49;;;;;;;8.00;5.20;;;;;;;-0.06;67.26;99485.65;108268;1281;21983;-73
2021/12/03 04:51:19;;;;;;;10.80;6.50;;;;;;;-0.10;67.39;99481.99;108042;1288;21991;-74
2021/12/03 04:53:48;;;;;;;14.00;7.00;;;;;;;-0.14;67.46;99485.31;108192;1288;23653;-73
2021/12/03 04:56:18;;;;;;;15.80;8.00;;;;;;;-0.18;67.62;99487.86;108155;1288;22019;-73
2021/12/03 04:58:47;;;;;;;11.90;7.30;;;;;;;-0.22;67.72;99490.91;108049;1288;23767;-73
2021/12/03 05:01:16;;;;;;;10.10;6.50;;;;;;;-0.24;67.84;99495.78;107638;1292;22048;-73
2021/12/03 05:03:46;;;;;;;15.30;8.50;;;;;;;-0.27;67.92;99499.79;107642;1292;23162;-73
2021/12/03 05:06:20;;;;;;;17.50;8.60;;;;;;;-0.31;68.01;99501.52;107689;1291;21997;-73
2021/12/03 05:08:49;;;;;;;11.70;7.30;;;;;;;-0.36;68.18;99498.59;107971;1282;23821;-74
2021/12/03 05:11:21;;;;;;;12.10;7.50;;;;;;;-0.38;68.34;99503.78;108711;1281;22042;-79
2021/12/03 05:13:56;;;;;;;10.20;7.40;;;;;;;-0.41;68.44;99503.13;108364;1286;22958;-78
2021/12/03 05:16:35;;;;;;;15.10;9.70;;;;;;;-0.43;68.55;99506.59;108354;1286;22992;-74
2021/12/03 05:19:07;;;;;;;14.60;9.40;;;;;;;-0.46;68.65;99514.38;108262;1282;23041;-73
2021/12/03 05:21:42;;;;;;;15.70;8.40;;;;;;;-0.50;68.71;99515.09;108425;1286;22312;-74
2021/12/03 05:24:16;;;;;;;19.00;9.90;;;;;;;-0.60;68.61;99518.05;108363;1285;21981;-73
2021/12/03 05:26:48;;;;;;;14.60;7.70;;;;;;;-0.67;68.79;99514.27;108422;1284;21992;-73
2021/12/03 05:29:18;;;;;;;14.70;7.90;;;;;;;-0.71;69.03;99517.14;108318;1285;22442;-73
2021/12/03 05:31:54;;;;;;;13.70;7.90;;;;;;;-0.75;69.06;99517.66;108403;1281;24463;-73
2021/12/03 05:34:33;;;;;;;12.70;8.00;;;;;;;-0.83;69.04;99519.10;108474;1281;21986;-74
2021/12/03 05:37:04;;;;;;;17.50;9.00;;;;;;;-0.90;69.14;99526.24;108721;1281;22022;-73
2021/12/03 05:39:36;;;;;;;11.40;6.70;;;;;;;-0.95;69.42;99534.53;108593;1275;23688;-73
2021/12/03 05:42:06;;;;;;;12.60;8.80;;;;;;;-0.98;69.55;99540.16;108970;1275;22415;-74
2021/12/03 05:44:36;;;;;;;12.20;8.10;;;;;;;-1.02;69.62;99542.86;108810;1275;21982;-74
2021/12/03 05:47:06;;;;;;;17.70;8.10;;;;;;;-1.06;69.90;99549.84;108976;1274;22204;-73
2021/12/03 05:49:35;;;;;;;13.50;7.80;;;;;;;-1.06;69.97;99550.40;108983;1275;23701;-74
2021/12/03 05:52:05;;;;;;;16.30;6.50;;;;;;;-1.08;70.08;99556.95;108818;1275;23692;-73
2021/12/03 05:54:35;;;;;;;12.30;7.00;;;;;;;-1.10;70.15;99560.55;108632;1281;21986;-74
2021/12/03 05:57:05;;;;;;;13.30;7.10;;;;;;;-1.13;70.11;99564.45;108351;1286;23010;-73
2021/12/03 05:59:34;;;;;;;11.90;8.20;;;;;;;-1.18;70.29;99561.31;108304;1286;24047;-73
2021/12/03 06:02:04;;;;;;;13.40;7.80;;;;;;;-1.20;70.41;99565.23;108318;1287;22200;-73
2021/12/03 06:04:36;;;;;;;14.70;6.80;;;;;;;-1.20;70.54;99572.69;107979;1287;23697;-74
2021/12/03 06:07:06;;;;;;;14.00;7.50;;;;;;;-1.23;70.48;99573.76;108126;1290;21995;-74
2021/12/03 06:09:35;;;;;;;11.10;6.40;;;;;;;-1.26;70.59;99573.65;108035;1290;21988;-75
2021/12/03 06:12:05;;;;;;;17.40;8.30;;;;;;;-1.27;70.73;99578.54;108024;1288;22766;-73
2021/12/03 06:14:34;;;;;;;15.20;8.50;;;;;;;-1.28;70.78;99584.30;108059;1288;23939;-74
2021/12/03 06:17:04;;;;;;;21.70;8.80;;;;;;;-1.30;70.85;99584.63;108043;1288;22051;-73
2021/12/03 06:19:35;;;;;;;18.50;9.10;;;;;;;-1.31;70.91;99592.69;108347;1286;23140;-73
2021/12/03 06:22:05;;;;;;;21.60;11.40;;;;;;;-1.33;71.02;99596.27;108448;1277;23682;-73
2021/12/03 06:24:36;;;;;;;18.10;9.80;;;;;;;-1.35;70.97;99598.84;108638;1280;23045;-75
2021/12/03 06:27:07;;;;;;;24.60;12.00;;;;;;;-1.39;71.02;99603.90;108490;1280;23057;-73
2021/12/03 06:29:36;;;;;;;17.00;9.30;;;;;;;-1.42;71.15;99605.73;108370;1284;22101;-74
2021/12/03 06:32:10;;;;;;;14.70;9.30;;;;;;;-1.45;71.25;99601.73;108200;1284;22038;-73
2021/12/03 06:34:39;;;;;;;19.10;9.70;;;;;;;-1.46;71.34;99607.17;108247;1284;24613;-73
2021/12/03 06:37:09;;;;;;;17.50;9.20;;;;;;;-1.47;71.37;99604.85;108337;1284;22012;-74
2021/12/03 06:39:39;;;;;;;15.20;9.20;;;;;;;-1.46;71.58;99603.73;108347;1284;22002;-73
2021/12/03 06:42:08;;;;;;;21.40;10.00;;;;;;;-1.47;71.48;99596.05;108090;1286;21993;-73
2021/12/03 06:44:37;;;;;;;16.00;8.60;;;;;;;-1.46;71.61;99606.70;107915;1289;21995;-73
2021/12/03 06:47:07;;;;;;;14.50;9.40;;;;;;;-1.45;71.75;99613.00;108028;1284;23672;-72
2021/12/03 06:49:39;;;;;;;20.40;11.20;;;;;;;-1.43;71.76;99616.84;108373;1284;22746;-73
2021/12/03 06:52:12;;;;;;;23.40;13.30;;;;;;;-1.44;71.65;99626.42;108391;1284;21991;-74
2021/12/03 06:54:42;;;;;;;18.00;10.80;;;;;;;-1.43;71.80;99621.50;108374;1284;22971;-74
2021/12/03 06:57:11;;;;;;;19.10;9.80;;;;;;;-1.41;71.73;99623.42;108345;1285;23138;-74
2021/12/03 06:59:41;;;;;;;23.30;13.00;;;;;;;-1.43;71.74;99625.98;107942;1284;21994;-76
2021/12/03 07:02:12;;;;;;;22.60;11.30;;;;;;;-1.43;71.81;99621.96;108469;1281;23126;-74
2021/12/03 07:04:43;;;;;;;21.90;12.20;;;;;;;-1.40;71.89;99623.52;108772;1281;21984;-73
2021/12/03 07:07:13;;;;;;;24.90;15.10;;;;;;;-1.35;72.07;99627.67;108679;1278;22060;-74
2021/12/03 07:09:43;;;;;;;28.70;15.40;;;;;;;-1.31;72.08;99624.95;108431;1280;22056;-73
2021/12/03 07:12:13;;;;;;;25.50;14.20;;;;;;;-1.30;71.85;99625.07;108670;1281;23685;-74
2021/12/03 07:14:43;;;;;;;26.40;14.80;;;;;;;-1.32;71.91;99624.34;108628;1282;24149;-72
2021/12/03 07:17:12;;;;;;;25.60;13.00;;;;;;;-1.33;71.79;99623.00;108150;1283;22500;-72
2021/12/03 07:19:42;;;;;;;23.30;12.30;;;;;;;-1.34;71.82;99621.55;108586;1282;23695;-72
2021/12/03 07:22:11;;;;;;;22.50;12.20;;;;;;;-1.36;71.81;99625.14;108599;1282;22005;-73
2021/12/03 07:24:40;;;;;;;22.30;10.90;;;;;;;-1.35;71.90;99625.06;108410;1284;22076;-74
2021/12/03 07:27:10;;;;;;;18.60;11.30;;;;;;;-1.36;71.84;99622.73;108480;1282;22166;-74
2021/12/03 07:29:39;;;;;;;19.20;11.20;;;;;;;-1.38;71.85;99627.73;108122;1288;21999;-74
2021/12/03 07:32:08;;;;;;;21.20;10.60;;;;;;;-1.40;71.93;99627.48;108002;1289;22021;-74
2021/12/03 07:34:38;;;;;;;23.00;12.60;;;;;;;-1.42;71.88;99625.93;108088;1284;22086;-73
2021/12/03 07:37:07;;;;;;;19.90;13.10;;;;;;;-1.43;72.06;99625.98;108401;1284;21997;-74
2021/12/03 07:39:37;;;;;;;28.20;16.00;;;;;;;-1.41;72.09;99632.56;108401;1284;23708;-74
2021/12/03 07:42:10;;;;;;;38.20;16.60;;;;;;;-1.37;72.28;99640.58;108399;1283;22107;-74
2021/12/03 07:44:44;;;;;;;30.10;13.10;;;;;;;-1.35;72.14;99642.87;108333;1282;24762;-74
2021/12/03 07:47:14;;;;;;;18.30;11.90;;;;;;;-1.32;72.24;99639.42;108417;1282;21987;-74
2021/12/03 07:49:44;;;;;;;17.80;11.20;;;;;;;-1.29;72.35;99637.04;108457;1282;22048;-74
2021/12/03 07:52:15;;;;;;;21.70;12.20;;;;;;;-1.18;72.67;99637.50;107946;1288;23779;-73
2021/12/03 07:54:45;;;;;;;19.80;10.00;;;;;;;-1.09;72.47;99636.30;108262;1282;22444;-73
2021/12/03 07:57:15;;;;;;;14.00;9.00;;;;;;;-1.03;72.37;99638.11;108399;1282;22004;-74
2021/12/03 07:59:45;;;;;;;19.40;10.10;;;;;;;-0.99;72.10;99636.34;108180;1287;22857;-75
2021/12/03 08:02:14;;;;;;;19.70;9.60;;;;;;;-0.98;71.96;99637.39;108351;1287;22033;-75
2021/12/03 08:04:44;;;;;;;23.60;10.00;;;;;;;-0.94;71.89;99641.48;108145;1286;21993;-74
2021/12/03 08:07:13;;;;;;;16.60;8.40;;;;;;;-0.91;71.89;99643.17;108188;1287;23770;-74
2021/12/03 08:09:43;;;;;;;19.30;9.90;;;;;;;-0.87;71.75;99643.70;108053;1288;22080;-74
2021/12/03 08:12:24;;;;;;;16.80;10.40;;;;;;;-0.82;71.79;99644.41;107890;1294;23614;-75
2021/12/03 08:14:53;;;;;;;19.90;9.40;;;;;;;-0.77;71.60;99642.66;107856;1294;23050;-74
2021/12/03 08:17:22;;;;;;;17.90;9.90;;;;;;;-0.72;71.61;99643.15;107716;1288;23671;-75
2021/12/03 08:19:52;;;;;;;15.80;10.00;;;;;;;-0.68;71.35;99644.95;107812;1288;23071;-75
2021/12/03 08:22:21;;;;;;;17.10;9.60;;;;;;;-0.66;71.30;99645.67;108097;1288;23043;-75
2021/12/03 08:24:54;;;;;;;15.30;10.00;;;;;;;-0.64;71.12;99639.26;108153;1288;22909;-75
2021/12/03 08:27:24;;;;;;;22.30;13.30;;;;;;;-0.62;71.13;99635.17;108058;1288;21998;-74
2021/12/03 08:29:53;;;;;;;18.90;9.50;;;;;;;-0.57;71.14;99638.58;108124;1282;22063;-76
2021/12/03 08:32:23;;;;;;;15.40;10.10;;;;;;;-0.52;70.96;99647.33;108525;1281;22023;-74
2021/12/03 08:34:53;;;;;;;15.50;9.20;;;;;;;-0.48;70.80;99649.29;108999;1274;22011;-74
2021/12/03 08:37:22;;;;;;;16.10;9.70;;;;;;;-0.43;70.88;99646.91;109109;1275;22493;-74
2021/12/03 08:39:51;;;;;;;21.30;11.20;;;;;;;-0.38;70.97;99648.19;108873;1275;21986;-74
2021/12/03 08:42:21;;;;;;;50.20;26.70;;;;;;;-0.32;70.97;99651.23;108875;1275;23669;-73
2021/12/03 08:44:50;;;;;;;31.30;17.10;;;;;;;-0.25;70.82;99645.85;108862;1275;21986;-74
2021/12/03 08:47:19;;;;;;;52.20;26.80;;;;;;;-0.17;70.72;99657.23;108904;1275;23580;-73
2021/12/03 08:49:54;;;;;;;44.20;24.00;;;;;;;-0.11;70.60;99655.52;108484;1282;21992;-73
2021/12/03 08:52:44;;;;;;;26.30;17.30;;;;;;;-0.02;70.50;99658.81;108397;1283;21983;-74
2021/12/03 08:55:20;;;;;;;41.50;23.00;;;;;;;0.09;70.58;99655.39;108489;1282;21989;-74
2021/12/03 08:57:50;;;;;;;23.60;14.40;;;;;;;0.19;70.62;99654.92;108428;1282;23596;-74
2021/12/03 09:00:19;;;;;;;36.50;17.60;;;;;;;0.33;70.54;99657.02;108406;1285;23624;-76
2021/12/03 09:02:49;;;;;;;21.80;12.40;;;;;;;0.44;70.17;99658.73;108340;1285;23051;-74
2021/12/03 09:05:19;;;;;;;22.50;13.20;;;;;;;0.54;69.91;99667.70;107945;1291;22012;-74
2021/12/03 09:07:48;;;;;;;25.30;15.50;;;;;;;0.64;69.91;99670.52;107363;1294;22060;-74
2021/12/03 09:10:32;;;;;;;15.40;9.30;;;;;;;0.78;69.82;99678.23;107630;1294;22991;-73
2021/12/03 09:13:06;;;;;;;25.10;12.90;;;;;;;0.89;69.53;99674.95;107685;1294;22990;-74
2021/12/03 09:15:44;;;;;;;18.30;9.80;;;;;;;1.00;69.47;99676.45;107633;1294;22841;-74
2021/12/03 09:18:24;;;;;;;14.80;10.30;;;;;;;1.12;69.20;99673.73;107565;1288;350282;-74
2021/12/03 09:21:18;;;;;;;17.30;9.50;;;;;;;1.30;69.25;99674.38;108133;1288;22029;-74
2021/12/03 09:26:39;;;;;;;19.00;11.10;;;;;;;1.63;68.22;99680.02;107853;1289;22001;-76
2021/12/03 09:29:17;;;;;;;18.10;11.70;;;;;;;1.78;68.05;99681.34;107754;1284;22032;-78
2021/12/03 09:31:48;;;;;;;11.80;9.30;;;;;;;1.92;67.45;99686.81;108588;1282;22684;-76
2021/12/03 09:34:21;;;;;;;15.10;8.70;;;;;;;2.01;66.89;99688.30;108406;1284;22744;-74
2021/12/03 09:36:53;;;;;;;12.40;8.40;;;;;;;2.08;66.46;99691.67;108432;1281;22021;-74
2021/12/03 09:39:23;;;;;;;13.90;8.50;;;;;;;2.16;66.16;99683.36;108394;1281;22135;-74
2021/12/03 09:41:57;;;;;;;17.50;7.90;;;;;;;2.24;65.69;99684.23;108500;1282;23717;-75
2021/12/03 09:44:30;;;;;;;16.10;8.40;;;;;;;2.31;65.36;99680.51;108522;1282;21977;-74
2021/12/03 09:47:00;;;;;;;22.70;11.50;;;;;;;2.36;64.82;99677.30;108567;1279;22052;-74
2021/12/03 09:49:35;;;;;;;16.60;9.90;;;;;;;2.42;64.66;99673.88;108876;1275;21996;-76
2021/12/03 09:52:15;;;;;;;14.70;9.80;;;;;;;2.52;64.47;99673.86;108852;1275;22202;-74
2021/12/03 09:54:46;;;;;;;22.70;15.80;;;;;;;2.68;64.45;99676.98;108879;1274;23672;-76
2021/12/03 09:57:32;;;;;;;17.80;11.00;;;;;;;2.79;63.99;99674.11;108923;1275;22116;-75
2021/12/03 10:00:20;;;;;;;14.30;8.40;;;;;;;2.91;63.72;99675.48;108940;1275;22103;-75
2021/12/03 10:14:49;;;;;;;13.00;7.90;;;;;;;3.35;62.11;99676.27;109118;1275;23911;-74
2021/12/03 10:36:58;;;;;;;19.10;10.40;;;;;;;3.65;60.63;99671.35;108715;1281;21984;-75
2021/12/03 10:45:29;;;;;;;15.30;9.70;;;;;;;4.92;59.50;99671.59;109092;1275;23020;-75
2021/12/03 10:53:24;;;;;;;13.50;9.10;;;;;;;7.80;62.13;99674.34;108931;1274;21985;-75
2021/12/03 10:59:09;;;;;;;11.00;7.20;;;;;;;9.65;56.58;99667.91;109227;1275;22956;-75
2021/12/03 11:17:00;;;;;;;19.50;11.50;;;;;;;8.30;47.72;99667.74;108403;1282;22846;-75
2021/12/03 12:24:59;;;;;;;12.00;7.50;;;;;;;2.84;57.42;99675.77;108326;1287;22005;-74
2021/12/03 13:25:25;;;;;;;15.60;7.80;;;;;;;2.90;59.96;99716.30;107908;1293;22039;-74
2021/12/03 14:07:33;;;;;;;18.10;10.70;;;;;;;2.51;59.66;99742.91;107098;1301;23637;-76
2021/12/03 14:10:42;;;;;;;22.40;11.20;;;;;;;2.47;59.56;99744.35;107212;1301;23771;-76
2021/12/03 14:38:18;;;;;;;27.40;12.40;;;;;;;2.13;59.62;99757.64;108806;1275;21982;-76
2021/12/03 14:44:19;;;;;;;19.50;12.00;;;;;;;2.02;59.77;99765.71;109032;1274;22445;-75
2021/12/03 14:46:58;;;;;;;26.30;13.00;;;;;;;1.99;59.86;99769.96;109028;1274;23033;-75
2021/12/03 14:55:00;;;;;;;23.00;14.60;;;;;;;1.84;59.88;99777.73;108825;1275;23361;-76
2021/12/03 15:08:54;;;;;;;26.20;14.40;;;;;;;1.83;59.98;99797.82;108564;1281;21986;-74
2021/12/03 15:20:17;;;;;;;33.60;20.20;;;;;;;1.73;59.69;99813.02;108614;1280;22759;-75
2021/12/03 15:25:45;;;;;;;33.70;24.70;;;;;;;1.69;59.25;99827.41;108539;1281;23653;-75
2021/12/03 15:31:33;;;;;;;37.20;24.70;;;;;;;1.62;59.18;99828.79;108609;1281;23844;-74
2021/12/03 15:34:21;;;;;;;39.30;24.00;;;;;;;1.60;59.11;99832.33;108580;1281;23698;-75
2021/12/03 16:05:02;;;;;;;46.20;31.50;;;;;;;1.32;58.72;99843.38;108187;1288;23701;-75
2021/12/03 16:13:04;;;;;;;50.10;28.40;;;;;;;1.27;58.48;99850.75;108030;1288;22026;-75
2021/12/03 16:21:23;;;;;;;41.00;26.90;;;;;;;1.23;58.23;99846.33;108199;1281;22012;-74
2021/12/03 16:51:47;;;;;;;30.80;18.90;;;;;;;1.01;56.57;99849.13;108496;1282;23039;-75
2021/12/03 16:54:41;;;;;;;32.90;21.40;;;;;;;1.00;56.49;99843.84;108412;1281;21979;-74
2021/12/03 16:57:12;;;;;;;26.80;16.90;;;;;;;0.98;56.28;99844.80;108537;1281;22117;-75
2021/12/03 16:59:44;;;;;;;29.70;18.30;;;;;;;0.96;56.21;99848.77;108431;1281;23698;-76
2021/12/03 17:02:28;;;;;;;28.20;18.90;;;;;;;0.94;56.06;99846.17;108036;1287;23798;-76
2021/12/03 17:46:26;;;;;;;37.50;22.00;;;;;;;0.68;54.88;99861.48;108761;1277;22743;-74
2021/12/03 17:57:07;;;;;;;34.60;21.40;;;;;;;0.69;54.51;99862.13;108855;1276;21994;-73
2021/12/03 17:59:41;;;;;;;39.60;24.30;;;;;;;0.69;54.32;99859.99;108804;1275;22005;-74
2021/12/03 18:05:02;;;;;;;31.20;22.40;;;;;;;0.69;54.10;99867.86;108837;1275;21983;-74
2021/12/03 18:19:23;;;;;;;45.40;27.10;;;;;;;0.58;53.54;99878.52;108034;1288;22482;-74
2021/12/03 18:57:15;;;;;;;48.50;28.30;;;;;;;0.09;54.40;99869.06;107971;1289;23906;-75
2021/12/03 18:59:56;;;;;;;50.90;29.00;;;;;;;0.05;54.63;99866.02;107741;1290;23637;-75
2021/12/03 19:02:26;;;;;;;41.70;25.30;;;;;;;0.04;54.91;99861.98;107742;1291;22005;-75
2021/12/03 19:07:33;;;;;;;71.30;34.80;;;;;;;-0.01;55.20;99855.21;108041;1288;22037;-73
2021/12/03 19:10:09;;;;;;;80.00;41.00;;;;;;;-0.04;55.45;99858.20;108113;1288;22049;-75
2021/12/03 19:12:40;;;;;;;68.90;38.60;;;;;;;-0.04;55.67;99856.10;107755;1291;23716;-76
2021/12/03 19:15:11;;;;;;;45.70;29.20;;;;;;;-0.03;55.87;99853.48;108165;1287;22172;-74
2021/12/03 19:17:42;;;;;;;48.40;32.10;;;;;;;-0.06;55.83;99852.08;107934;1287;23082;-74